Terminal Aerodrome Forecast (TAF)

TAF


TAF for:NVSC (Vanua Lava/Sola Airport) issued at 2220 UTC 24 Jun 2018
Text:TAF NVSC 242220Z 2500/2524 17006KT 9999 BKN018 OVC040
Forecast period:0000 UTC 25 June 2018 to 0000 UTC 26 June 2018
Forecast type:FROM: standard forecast or significant change
Winds:from the S (170 degrees) at 7 MPH (6 knots; 3.1 m/s)
Visibility:6 or more sm (10+ km)
Ceiling:1800 feet AGL
Clouds: broken clouds at 1800 feet AGL, overcast cloud deck at 4000 feet AGL
Text:PROB40 INTER 2500/2506 6000 -TSRA SCT012 BKN016
Forecast period:0000 to 0600 UTC 25 June 2018
Forecast type:TEMPORARY: The following changes expected for less than half the time period
Visibility: 4 sm ( 6 km)
Ceiling:1600 feet AGL
Clouds: scattered clouds at 1200 feet AGL, broken clouds at 1600 feet AGL
Weather:-TSRA (light rain associated with thunderstorm(s))
Text:BECMG 2500/2503 14012KT
Forecast period:0000 UTC 25 June 2018 to 0000 UTC 26 June 2018
Forecast type:BECOMING: Conditions expected to become as follows by 0300 UTC 25 June 2018
Winds:from the SE (140 degrees) at 14 MPH (12 knots; 6.2 m/s)
Visibility:6 or more sm (10+ km)
Ceiling:1800 feet AGL
Clouds: broken clouds at 1800 feet AGL, overcast cloud deck at 4000 feet AGL

TAF


TAF for:NVSG (Ambae/Longana Airport) issued at 2220 UTC 24 Jun 2018
Text:TAF NVSG 242220Z 2500/2524 10005KT 9999 SCT020 BKN040
Forecast period:0000 UTC 25 June 2018 to 0000 UTC 26 June 2018
Forecast type:FROM: standard forecast or significant change
Winds:from the E (100 degrees) at 6 MPH (5 knots; 2.6 m/s)
Visibility:6 or more sm (10+ km)
Ceiling:4000 feet AGL
Clouds: scattered clouds at 2000 feet AGL, broken clouds at 4000 feet AGL
Text:PROB40 INTER 2500/2506 9000 -SHRA BKN0185
Forecast period:0000 to 0600 UTC 25 June 2018
Forecast type:TEMPORARY: The following changes expected for less than half the time period
Visibility: 6 sm ( 9 km)
Clouds:missing
Weather:-SHRA (light rain showers)
Text:BECMG 2500/2503 14012KT
Forecast period:0000 UTC 25 June 2018 to 0000 UTC 26 June 2018
Forecast type:BECOMING: Conditions expected to become as follows by 0300 UTC 25 June 2018
Winds:from the SE (140 degrees) at 14 MPH (12 knots; 6.2 m/s)
Visibility:6 or more sm (10+ km)
Ceiling:4000 feet AGL
Clouds: scattered clouds at 2000 feet AGL, broken clouds at 4000 feet AGL

TAF


TAF for:NVSS (Santo/Pekoa International Airport) issued at 2220 UTC 24 Jun 2018
Text:TAF NVSS 242220Z 2500/2524 13010KT 9999 SCT020 BKN040
Forecast period:0000 UTC 25 June 2018 to 0000 UTC 26 June 2018
Forecast type:FROM: standard forecast or significant change
Winds:from the SE (130 degrees) at 12 MPH (10 knots; 5.1 m/s)
Visibility:6 or more sm (10+ km)
Ceiling:4000 feet AGL
Clouds: scattered clouds at 2000 feet AGL, broken clouds at 4000 feet AGL
Text:PROB40 INTER 2500/2506 9000 -SHRA BKN018 OVC035
Forecast period:0000 to 0600 UTC 25 June 2018
Forecast type:TEMPORARY: The following changes expected for less than half the time period
Visibility: 6 sm ( 9 km)
Ceiling:1800 feet AGL
Clouds: broken clouds at 1800 feet AGL, overcast cloud deck at 3500 feet AGL
Weather:-SHRA (light rain showers)
Text:BECMG 2500/2503 15010KT
Forecast period:0000 UTC 25 June 2018 to 0000 UTC 26 June 2018
Forecast type:BECOMING: Conditions expected to become as follows by 0300 UTC 25 June 2018
Winds:from the SSE (150 degrees) at 12 MPH (10 knots; 5.1 m/s)
Visibility:6 or more sm (10+ km)
Ceiling:4000 feet AGL
Clouds: scattered clouds at 2000 feet AGL, broken clouds at 4000 feet AGL

TAF


TAF for:NVSL (Malekula/Lamap Airport) issued at 2220 UTC 24 Jun 2018
Text:TAF NVSL 242220Z 2500/2524 14006KT 9999 SCT020 OVC040
Forecast period:0000 UTC 25 June 2018 to 0000 UTC 26 June 2018
Forecast type:FROM: standard forecast or significant change
Winds:from the SE (140 degrees) at 7 MPH (6 knots; 3.1 m/s)
Visibility:6 or more sm (10+ km)
Ceiling:4000 feet AGL
Clouds: scattered clouds at 2000 feet AGL, overcast cloud deck at 4000 feet AGL
Text:PROB30 INTER 2500/2506 9000 -SHRA BKN018 OVC035
Forecast period:0000 to 0600 UTC 25 June 2018
Forecast type:TEMPORARY: The following changes expected for less than half the time period
Visibility: 6 sm ( 9 km)
Ceiling:1800 feet AGL
Clouds: broken clouds at 1800 feet AGL, overcast cloud deck at 3500 feet AGL
Weather:-SHRA (light rain showers)
Text:BECMG 2500/2503 14012KT
Forecast period:0000 UTC 25 June 2018 to 0000 UTC 26 June 2018
Forecast type:BECOMING: Conditions expected to become as follows by 0300 UTC 25 June 2018
Winds:from the SE (140 degrees) at 14 MPH (12 knots; 6.2 m/s)
Visibility:6 or more sm (10+ km)
Ceiling:4000 feet AGL
Clouds: scattered clouds at 2000 feet AGL, overcast cloud deck at 4000 feet AGL

TAF


TAF for:NVSP (Malekula/Norsup Airport) (Norsup Arpt, --, NV) issued at 2220 UTC 24 Jun 2018
Text:TAF NVSP (Malekula/Norsup Airport) 242220Z 2500/2524 13005KT 9999 SCT020 BKN040
Forecast period:0000 UTC 25 June 2018 to 0000 UTC 26 June 2018
Forecast type:FROM: standard forecast or significant change
Winds:from the SE (130 degrees) at 6 MPH (5 knots; 2.6 m/s)
Visibility:6 or more sm (10+ km)
Ceiling:4000 feet AGL
Clouds: scattered clouds at 2000 feet AGL, broken clouds at 4000 feet AGL
Text:PROB30 INTER 2500/2506 9000 -SHRA BKN018 OVC035
Forecast period:0000 to 0600 UTC 25 June 2018
Forecast type:TEMPORARY: The following changes expected for less than half the time period
Visibility: 6 sm ( 9 km)
Ceiling:1800 feet AGL
Clouds: broken clouds at 1800 feet AGL, overcast cloud deck at 3500 feet AGL
Weather:-SHRA (light rain showers)
Text:BECMG 2500/2503 11012KT
Forecast period:0000 UTC 25 June 2018 to 0000 UTC 26 June 2018
Forecast type:BECOMING: Conditions expected to become as follows by 0300 UTC 25 June 2018
Winds:from the ESE (110 degrees) at 14 MPH (12 knots; 6.2 m/s)
Visibility:6 or more sm (10+ km)
Ceiling:4000 feet AGL
Clouds: scattered clouds at 2000 feet AGL, broken clouds at 4000 feet AGL

TAF


TAF for:NVVV (Efate/Bauerfield International Airport) issued at 2220 UTC 24 Jun 2018
Text:TAF NVVV 242220Z 2500/2524 VRB02KT 9999 SCT020
Forecast period:0000 UTC 25 June 2018 to 0000 UTC 26 June 2018
Forecast type:FROM: standard forecast or significant change
Winds:variable direction winds at 2 MPH (2 knots; 1.0 m/s)
Visibility:6 or more sm (10+ km)
Ceiling:at least 12,000 feet AGL
Clouds: scattered clouds at 2000 feet AGL
Text:BECMG 2500/2503 15010KT
Forecast period:0000 UTC 25 June 2018 to 0000 UTC 26 June 2018
Forecast type:BECOMING: Conditions expected to become as follows by 0300 UTC 25 June 2018
Winds:from the SSE (150 degrees) at 12 MPH (10 knots; 5.1 m/s)
Visibility:6 or more sm (10+ km)
Ceiling:at least 12,000 feet AGL
Clouds: scattered clouds at 2000 feet AGL

TAF


TAF for:NVVW (Tanna/WhiteGrass International Airport) issued at 2220 UTC 24 Jun 2018
Text:TAF NVVW 242220Z 2500/2524 VRB02KT 9999 SCT022
Forecast period:0000 UTC 25 June 2018 to 0000 UTC 26 June 2018
Forecast type:FROM: standard forecast or significant change
Winds:variable direction winds at 2 MPH (2 knots; 1.0 m/s)
Visibility:6 or more sm (10+ km)
Ceiling:at least 12,000 feet AGL
Clouds: scattered clouds at 2200 feet AGL
Text:BECMG 2500/2503 17007KT
Forecast period:0000 UTC 25 June 2018 to 0000 UTC 26 June 2018
Forecast type:BECOMING: Conditions expected to become as follows by 0300 UTC 25 June 2018
Winds:from the S (170 degrees) at 8 MPH (7 knots; 3.6 m/s)
Visibility:6 or more sm (10+ km)
Ceiling:at least 12,000 feet AGL
Clouds: scattered clouds at 2200 feet AGL

TAF


TAF for:NVVA (Aneityum/Anelcahuat Airport) issued at 2220 UTC 24 Jun 2018
Text:TAF NVVA 242220Z 2500/2524 VRB03KT 9999 SCT022
Forecast period:0000 UTC 25 June 2018 to 0000 UTC 26 June 2018
Forecast type:FROM: standard forecast or significant change
Winds:variable direction winds at 3 MPH (3 knots; 1.5 m/s)
Visibility:6 or more sm (10+ km)
Ceiling:at least 12,000 feet AGL
Clouds: scattered clouds at 2200 feet AGL
Text:BECMG 2500/2503 16010KT
Forecast period:0000 UTC 25 June 2018 to 0000 UTC 26 June 2018
Forecast type:BECOMING: Conditions expected to become as follows by 0300 UTC 25 June 2018
Winds:from the SSE (160 degrees) at 12 MPH (10 knots; 5.1 m/s)
Visibility:6 or more sm (10+ km)
Ceiling:at least 12,000 feet AGL
Clouds: scattered clouds at 2200 feet AGL

TAF

ADDS TAF Data INFO
IDs: Format: Raw Decoded Include METARs

Data at: 0350 UTC 25 Jun 2018

TAF NVSC 242220Z 2500/2524 17006KT 9999 BKN018 OVC040
  PROB40 INTER 2500/2506 6000 -TSRA SCT012 BKN016
  BECMG 2500/2503 14012KT

 TAF NVSG 242220Z 2500/2524 10005KT 9999 SCT020 BKN040
  PROB40 INTER 2500/2506 9000 -SHRA BKN0185
  BECMG 2500/2503 14012KT

 TAF NVSS 242220Z 2500/2524 13010KT 9999 SCT020 BKN040
  PROB40 INTER 2500/2506 9000 -SHRA BKN018 OVC035
  BECMG 2500/2503 15010KT

 TAF NVSL 242220Z 2500/2524 14006KT 9999 SCT020 OVC040
  PROB30 INTER 2500/2506 9000 -SHRA BKN018 OVC035
  BECMG 2500/2503 14012KT

 TAF NVSP 242220Z 2500/2524 13005KT 9999 SCT020 BKN040
  PROB30 INTER 2500/2506 9000 -SHRA BKN018 OVC035
  BECMG 2500/2503 11012KT

 TAF NVVV 242220Z 2500/2524 VRB02KT 9999 SCT020
  BECMG 2500/2503 15010KT

 TAF NVVW 242220Z 2500/2524 VRB02KT 9999 SCT022
  BECMG 2500/2503 17007KT

 TAF NVVA 242220Z 2500/2524 VRB03KT 9999 SCT022
  BECMG 2500/2503 16010KT